createdAt,value
2023-04-09T00:01:04.221Z,99386.66
2023-04-09T00:03:32.184Z,99387.31
2023-04-09T00:06:00.196Z,99383.44
2023-04-09T00:08:29.615Z,99380.56
2023-04-09T00:10:59.101Z,99391.88
2023-04-09T00:13:38.697Z,99385.22
2023-04-09T00:16:08.441Z,99387.22
2023-04-09T00:18:37.642Z,99386.56
2023-04-09T00:21:07.194Z,99393.44
2023-04-09T00:23:36.774Z,99389.56
2023-04-09T00:26:07.725Z,99389.47
2023-04-09T00:28:36.048Z,99385.31
2023-04-09T00:31:04.024Z,99385.63
2023-04-09T00:33:31.933Z,99384.69
2023-04-09T00:35:59.950Z,99382.16
2023-04-09T00:38:28.058Z,99380.88
2023-04-09T00:40:57.637Z,99377.13
2023-04-09T00:43:25.498Z,99379.44
2023-04-09T00:45:53.550Z,99376.28
2023-04-09T00:48:23.790Z,99374.91
2023-04-09T00:50:52.174Z,99375.66
2023-04-09T00:53:21.017Z,99376.50
2023-04-09T00:55:48.892Z,99370.16
2023-04-09T00:58:20.675Z,99375.16
2023-04-09T01:00:48.674Z,99372.47
2023-04-09T01:03:17.184Z,99376.59
2023-04-09T01:05:55.009Z,99380.31
2023-04-09T01:08:38.850Z,99373.88
2023-04-09T01:11:15.850Z,99370.47
2023-04-09T01:13:53.782Z,99371.72
2023-04-09T01:16:24.788Z,99380.50
2023-04-09T01:18:59.220Z,99370.34
2023-04-09T01:21:32.028Z,99365.53
2023-04-09T01:24:08.714Z,99366.84
2023-04-09T01:26:58.357Z,99364.69
2023-04-09T01:29:36.777Z,99365.91
2023-04-09T01:32:08.243Z,99367.31
2023-04-09T01:34:38.623Z,99371.38
2023-04-09T01:37:07.566Z,99364.47
2023-04-09T01:39:38.006Z,99368.00
2023-04-09T01:42:09.680Z,99368.72
2023-04-09T01:44:40.412Z,99368.91
2023-04-09T01:47:09.585Z,99372.56
2023-04-09T01:49:38.541Z,99366.47
2023-04-09T01:52:07.209Z,99371.75
2023-04-09T01:54:35.051Z,99369.88
2023-04-09T01:57:03.225Z,99368.47
2023-04-09T01:59:31.451Z,99372.75
2023-04-09T02:02:06.791Z,99372.84
2023-04-09T02:04:36.788Z,99375.78
2023-04-09T02:07:11.279Z,99372.91
2023-04-09T02:09:41.481Z,99372.38
2023-04-09T02:12:13.595Z,99374.78
2023-04-09T02:14:42.224Z,99373.47
2023-04-09T02:17:11.370Z,99374.53
2023-04-09T02:19:40.640Z,99372.03
2023-04-09T02:22:08.828Z,99361.75
2023-04-09T02:24:37.457Z,99369.22
2023-04-09T02:27:06.168Z,99367.13
2023-04-09T02:29:34.665Z,99367.56
2023-04-09T02:32:03.609Z,99370.06
2023-04-09T02:34:32.831Z,99364.66
2023-04-09T02:37:00.744Z,99369.25
2023-04-09T02:39:28.542Z,99362.69
2023-04-09T02:41:57.856Z,99363.78
2023-04-09T02:44:27.970Z,99362.16
2023-04-09T02:46:57.159Z,99366.16
2023-04-09T02:49:25.079Z,99364.25
2023-04-09T02:51:54.363Z,99370.50
2023-04-09T02:54:22.402Z,99367.56
2023-04-09T02:56:50.318Z,99373.28
2023-04-09T02:59:18.396Z,99366.31
2023-04-09T03:01:46.487Z,99366.25
2023-04-09T03:04:14.724Z,99364.50
2023-04-09T03:06:42.700Z,99359.59
2023-04-09T03:09:11.985Z,99354.78
2023-04-09T03:11:40.276Z,99362.06
2023-04-09T03:14:08.074Z,99356.53
2023-04-09T03:16:35.927Z,99354.50
2023-04-09T03:19:03.842Z,99357.59
2023-04-09T03:21:32.035Z,99350.22
2023-04-09T03:24:00.201Z,99352.97
2023-04-09T03:26:36.083Z,99353.22
2023-04-09T03:29:07.064Z,99350.63
2023-04-09T03:31:35.139Z,99353.22
2023-04-09T03:34:03.088Z,99343.19
2023-04-09T03:36:34.375Z,99346.53
2023-04-09T03:39:10.389Z,99353.97
2023-04-09T03:41:43.952Z,99348.72
2023-04-09T03:44:15.758Z,99344.97
2023-04-09T03:47:06.601Z,99353.50
2023-04-09T03:49:36.560Z,99348.09
2023-04-09T03:52:26.715Z,99349.31
2023-04-09T03:55:04.470Z,99347.06
2023-04-09T03:57:33.971Z,99355.59
2023-04-09T04:00:02.431Z,99343.03
2023-04-09T04:02:40.106Z,99346.22
2023-04-09T04:05:12.162Z,99345.53
2023-04-09T04:07:46.256Z,99350.88
2023-04-09T04:10:19.471Z,99346.38
2023-04-09T04:12:49.836Z,99347.09
2023-04-09T04:15:24.743Z,99346.38
2023-04-09T04:17:56.432Z,99341.44
2023-04-09T04:20:37.048Z,99349.72
2023-04-09T04:23:09.551Z,99351.66
2023-04-09T04:25:43.082Z,99353.03
2023-04-09T04:28:16.396Z,99363.00
2023-04-09T04:30:44.331Z,99367.75
2023-04-09T04:33:12.645Z,99366.19
2023-04-09T04:35:48.907Z,99366.53
2023-04-09T04:38:41.263Z,99365.56
2023-04-09T04:41:16.153Z,99367.09
2023-04-09T04:43:51.990Z,99364.78
2023-04-09T04:46:23.359Z,99363.09
2023-04-09T04:48:51.613Z,99365.97
2023-04-09T04:51:20.261Z,99366.63
2023-04-09T04:54:00.874Z,99372.53
2023-04-09T04:56:29.273Z,99370.97
2023-04-09T04:59:05.319Z,99374.88
2023-04-09T05:01:45.464Z,99382.25
2023-04-09T05:04:14.494Z,99375.69
2023-04-09T05:06:42.402Z,99382.50
2023-04-09T05:09:14.714Z,99369.66
2023-04-09T05:11:54.961Z,99373.19
2023-04-09T05:14:25.396Z,99368.63
2023-04-09T05:16:53.510Z,99371.88
2023-04-09T05:19:25.419Z,99371.44
2023-04-09T05:21:59.272Z,99371.44
2023-04-09T05:24:27.182Z,99378.72
2023-04-09T05:26:54.991Z,99373.81
2023-04-09T05:29:24.672Z,99381.66
2023-04-09T05:31:52.576Z,99378.56
2023-04-09T05:34:29.237Z,99388.94
2023-04-09T05:36:58.110Z,99390.41
2023-04-09T05:39:26.960Z,99383.53
2023-04-09T05:41:56.260Z,99384.84
2023-04-09T05:44:38.828Z,99390.00
2023-04-09T05:47:14.492Z,99381.97
2023-04-09T05:49:57.026Z,99384.41
2023-04-09T05:52:25.067Z,99384.59
2023-04-09T05:54:53.912Z,99387.06
2023-04-09T05:57:30.253Z,99385.44
2023-04-09T06:00:03.301Z,99387.72
2023-04-09T06:02:44.762Z,99381.19
2023-04-09T06:05:12.930Z,99383.03
2023-04-09T06:07:40.776Z,99374.56
2023-04-09T06:10:09.751Z,99384.75
2023-04-09T06:12:37.773Z,99396.53
2023-04-09T06:15:09.012Z,99396.34
2023-04-09T06:17:37.126Z,99388.00
2023-04-09T06:20:06.505Z,99391.44
2023-04-09T06:22:35.448Z,99385.97
2023-04-09T06:25:06.180Z,99382.69
2023-04-09T06:27:34.547Z,99376.22
2023-04-09T06:30:05.044Z,99388.59
2023-04-09T06:32:46.980Z,99383.56
2023-04-09T06:35:21.489Z,99394.56
2023-04-09T06:37:58.723Z,99386.81
2023-04-09T06:40:53.979Z,99388.38
2023-04-09T06:43:34.892Z,99386.41
2023-04-09T06:46:21.590Z,99386.78
2023-04-09T06:48:50.889Z,99385.91
2023-04-09T06:51:20.919Z,99386.25
2023-04-09T06:53:49.841Z,99393.94
2023-04-09T06:56:18.151Z,99385.19
2023-04-09T06:58:48.418Z,99382.22
2023-04-09T07:01:17.438Z,99393.50
2023-04-09T07:03:45.798Z,99387.72
2023-04-09T07:06:15.302Z,99385.63
2023-04-09T07:08:44.332Z,99388.91
2023-04-09T07:11:12.204Z,99389.34
2023-04-09T07:13:40.078Z,99394.31
2023-04-09T07:16:07.982Z,99390.97
2023-04-09T07:18:35.822Z,99390.72
2023-04-09T07:21:04.437Z,99390.81
2023-04-09T07:23:37.211Z,99387.72
2023-04-09T07:26:05.371Z,99391.31
2023-04-09T07:28:33.343Z,99390.09
2023-04-09T07:31:02.890Z,99391.19
2023-04-09T07:33:31.189Z,99392.88
2023-04-09T07:35:59.226Z,99389.47
2023-04-09T07:38:30.444Z,99394.22
2023-04-09T07:41:00.805Z,99395.09
2023-04-09T07:43:28.982Z,99405.38
2023-04-09T07:45:57.088Z,99412.16
2023-04-09T07:48:25.256Z,99414.47
2023-04-09T07:50:55.457Z,99409.84
2023-04-09T07:53:23.307Z,99402.00
2023-04-09T07:55:52.421Z,99408.38
2023-04-09T07:58:21.569Z,99410.31
2023-04-09T08:00:49.512Z,99408.25
2023-04-09T08:03:17.686Z,99416.75
2023-04-09T08:05:48.228Z,99407.88
2023-04-09T08:08:16.068Z,99402.19
2023-04-09T08:10:43.924Z,99408.63
2023-04-09T08:13:12.124Z,99403.88
2023-04-09T08:15:41.513Z,99410.34
2023-04-09T08:18:09.490Z,99406.31
2023-04-09T08:20:38.187Z,99397.88
2023-04-09T08:23:06.164Z,99404.66
2023-04-09T08:25:34.361Z,99404.28
2023-04-09T08:28:02.343Z,99404.09
2023-04-09T08:30:34.184Z,99406.03
2023-04-09T08:33:03.680Z,99410.97
2023-04-09T08:35:31.886Z,99407.44
2023-04-09T08:38:00.189Z,99408.69
2023-04-09T08:40:28.442Z,99409.69
2023-04-09T08:42:57.796Z,99408.50
2023-04-09T08:45:25.930Z,99407.03
2023-04-09T08:47:54.001Z,99413.66
2023-04-09T08:50:23.753Z,99410.41
2023-04-09T08:52:52.048Z,99412.72
2023-04-09T08:55:20.308Z,99408.53
2023-04-09T08:57:48.329Z,99411.84
2023-04-09T09:00:18.402Z,99403.91
2023-04-09T09:03:03.448Z,99406.47
2023-04-09T09:05:40.099Z,99416.81
2023-04-09T09:08:09.055Z,99418.38
2023-04-09T09:10:41.956Z,99413.19
2023-04-09T09:13:21.308Z,99410.13
2023-04-09T09:15:52.805Z,99410.84
2023-04-09T09:18:20.941Z,99411.38
2023-04-09T09:20:50.185Z,99404.59
2023-04-09T09:23:18.013Z,99400.25
2023-04-09T09:25:45.884Z,99407.19
2023-04-09T09:28:15.063Z,99402.69
2023-04-09T09:30:43.160Z,99417.78
2023-04-09T09:33:12.227Z,99417.09
2023-04-09T09:35:52.169Z,99423.53
2023-04-09T09:38:20.050Z,99419.59
2023-04-09T09:40:48.598Z,99424.25
2023-04-09T09:43:16.522Z,99420.38
2023-04-09T09:45:47.768Z,99419.03
2023-04-09T09:48:16.327Z,99416.50
2023-04-09T09:50:47.001Z,99407.81
2023-04-09T09:53:23.698Z,99415.38
2023-04-09T09:55:57.304Z,99410.78
2023-04-09T09:58:29.157Z,99422.22
2023-04-09T10:00:57.936Z,99411.06
2023-04-09T10:03:28.205Z,99407.56
2023-04-09T10:05:57.544Z,99406.63
2023-04-09T10:08:28.014Z,99412.00
2023-04-09T10:10:56.312Z,99411.38
2023-04-09T10:13:32.496Z,99416.63
2023-04-09T10:16:01.718Z,99423.25
2023-04-09T10:18:33.540Z,99416.25
2023-04-09T10:21:07.922Z,99408.53
2023-04-09T10:23:40.318Z,99413.56
2023-04-09T10:26:11.352Z,99408.03
2023-04-09T10:28:40.189Z,99408.44
2023-04-09T10:31:10.563Z,99402.69
2023-04-09T10:33:40.538Z,99405.88
2023-04-09T10:36:13.525Z,99403.31
2023-04-09T10:38:48.292Z,99394.47
2023-04-09T10:41:24.111Z,99401.09
2023-04-09T10:43:54.842Z,99404.38
2023-04-09T10:46:30.483Z,99398.47
2023-04-09T10:49:11.797Z,99394.75
2023-04-09T10:51:40.158Z,99394.44
2023-04-09T10:54:46.117Z,99389.38
2023-04-09T10:57:19.869Z,99388.41
2023-04-09T10:59:49.724Z,99400.00
2023-04-09T11:02:57.432Z,99391.53
2023-04-09T11:05:44.312Z,99386.00
2023-04-09T11:08:13.954Z,99392.13
2023-04-09T11:10:49.801Z,99383.31
2023-04-09T11:13:20.098Z,99388.03
2023-04-09T11:15:48.204Z,99382.34
2023-04-09T11:18:17.138Z,99384.25
2023-04-09T11:20:45.036Z,99382.44
2023-04-09T11:23:14.776Z,99384.78
2023-04-09T11:25:42.779Z,99375.03
2023-04-09T11:28:12.536Z,99368.88
2023-04-09T11:30:41.465Z,99373.84
2023-04-09T11:33:09.649Z,99369.38
2023-04-09T11:35:37.967Z,99377.25
2023-04-09T11:38:10.092Z,99375.44
2023-04-09T11:40:43.532Z,99373.06
2023-04-09T11:43:12.849Z,99381.13
2023-04-09T11:45:40.723Z,99369.56
2023-04-09T11:48:08.995Z,99371.88
2023-04-09T11:50:37.748Z,99370.25
2023-04-09T11:53:17.444Z,99365.56
2023-04-09T11:55:51.010Z,99357.91
2023-04-09T11:58:23.706Z,99365.69
2023-04-09T12:00:54.277Z,99361.59
2023-04-09T12:03:28.777Z,99374.44
2023-04-09T12:05:56.587Z,99365.13
2023-04-09T12:08:24.961Z,99368.56
2023-04-09T12:10:55.940Z,99364.75
2023-04-09T12:13:33.477Z,99369.22
2023-04-09T12:16:02.208Z,99361.34
2023-04-09T12:18:29.875Z,99362.00
2023-04-09T12:20:57.599Z,99364.69
2023-04-09T12:23:25.297Z,99366.38
2023-04-09T12:25:55.400Z,99357.56
2023-04-09T12:28:23.948Z,99348.31
2023-04-09T12:30:59.900Z,99353.16
2023-04-09T12:33:34.298Z,99344.63
2023-04-09T12:36:19.629Z,99354.06
2023-04-09T12:38:54.222Z,99347.81
2023-04-09T12:41:48.480Z,99342.97
2023-04-09T12:44:33.801Z,99326.63
2023-04-09T12:47:11.226Z,99321.63
2023-04-09T12:49:50.013Z,99320.22
2023-04-09T12:52:26.490Z,99322.63
2023-04-09T12:55:11.534Z,99319.38
2023-04-09T12:57:52.221Z,99316.56
2023-04-09T13:00:44.768Z,99315.13
2023-04-09T13:03:19.357Z,99308.59
2023-04-09T13:05:53.824Z,99296.81
2023-04-09T13:08:22.431Z,99308.56
2023-04-09T13:10:52.527Z,99296.28
2023-04-09T13:13:21.438Z,99300.56
2023-04-09T13:15:49.355Z,99311.06
2023-04-09T13:18:18.820Z,99311.16
2023-04-09T13:20:46.522Z,99306.66
2023-04-09T13:23:14.213Z,99301.38
2023-04-09T13:25:43.301Z,99288.44
2023-04-09T13:28:11.500Z,99297.66
2023-04-09T13:30:39.170Z,99296.03
2023-04-09T13:33:07.058Z,99292.59
2023-04-09T13:35:36.265Z,99286.81
2023-04-09T13:38:04.193Z,99291.06
2023-04-09T13:40:31.903Z,99293.50
2023-04-09T13:42:59.650Z,99282.22
2023-04-09T13:45:27.217Z,99272.84
2023-04-09T13:47:55.119Z,99270.28
2023-04-09T13:50:22.872Z,99281.00
2023-04-09T13:52:51.939Z,99273.66
2023-04-09T13:55:19.864Z,99267.28
2023-04-09T13:57:47.499Z,99259.66
2023-04-09T14:00:15.550Z,99265.16
2023-04-09T14:02:43.891Z,99268.91
2023-04-09T14:05:11.903Z,99268.59
2023-04-09T14:07:39.861Z,99259.88
2023-04-09T14:10:09.971Z,99262.44
2023-04-09T14:12:37.581Z,99256.44
2023-04-09T14:15:08.715Z,99245.00
2023-04-09T14:17:36.444Z,99250.66
2023-04-09T14:20:04.618Z,99252.66
2023-04-09T14:22:32.332Z,99246.75
2023-04-09T14:25:00.371Z,99234.94
2023-04-09T14:27:29.566Z,99242.63
2023-04-09T14:29:57.265Z,99241.53
2023-04-09T14:32:25.641Z,99233.47
2023-04-09T14:34:53.917Z,99241.91
2023-04-09T14:37:21.626Z,99238.69
2023-04-09T14:39:50.284Z,99242.81
2023-04-09T14:42:19.249Z,99246.34
2023-04-09T14:44:49.123Z,99247.75
2023-04-09T14:47:17.708Z,99247.63
2023-04-09T14:49:45.521Z,99246.13
2023-04-09T14:52:13.116Z,99239.50
2023-04-09T14:54:41.731Z,99241.16
2023-04-09T14:57:09.572Z,99251.97
2023-04-09T14:59:37.358Z,99241.59
2023-04-09T15:02:06.734Z,99248.22
2023-04-09T15:04:34.588Z,99244.75
2023-04-09T15:07:02.609Z,99242.34
2023-04-09T15:09:30.286Z,99232.28
2023-04-09T15:11:58.007Z,99245.53
2023-04-09T15:14:26.376Z,99243.19
2023-04-09T15:16:55.916Z,99239.25
2023-04-09T15:19:25.002Z,99234.59
2023-04-09T15:21:52.714Z,99242.34
2023-04-09T15:24:20.459Z,99240.81
2023-04-09T15:26:49.793Z,99243.88
2023-04-09T15:29:17.816Z,99241.38
2023-04-09T15:31:55.800Z,99238.22
2023-04-09T15:34:26.863Z,99240.34
2023-04-09T15:36:55.740Z,99234.53
2023-04-09T15:39:25.241Z,99232.72
2023-04-09T15:41:53.548Z,99229.09
2023-04-09T15:44:22.383Z,99226.69
2023-04-09T15:46:51.448Z,99231.34
2023-04-09T15:49:38.812Z,99229.81
2023-04-09T15:52:14.138Z,99222.13
2023-04-09T15:54:42.035Z,99225.75
2023-04-09T15:57:10.959Z,99211.44
2023-04-09T15:59:39.864Z,99221.50
2023-04-09T16:02:08.903Z,99214.63
2023-04-09T16:04:37.008Z,99218.38
2023-04-09T16:07:05.297Z,99225.25
2023-04-09T16:09:34.557Z,99220.44
2023-04-09T16:12:03.321Z,99228.75
2023-04-09T16:14:38.724Z,99226.88
2023-04-09T16:17:12.370Z,99227.88
2023-04-09T16:19:41.088Z,99230.00
2023-04-09T16:22:09.637Z,99238.28
2023-04-09T16:24:40.063Z,99236.56
2023-04-09T16:27:07.958Z,99232.22
2023-04-09T16:29:35.692Z,99232.75
2023-04-09T16:32:04.013Z,99225.09
2023-04-09T16:34:32.816Z,99227.88
2023-04-09T16:37:01.430Z,99232.38
2023-04-09T16:39:29.614Z,99221.88
2023-04-09T16:41:59.607Z,99228.91
2023-04-09T16:44:27.929Z,99226.25
2023-04-09T16:46:56.578Z,99226.88
2023-04-09T16:49:25.138Z,99221.66
2023-04-09T16:51:54.336Z,99225.03
2023-04-09T16:54:22.824Z,99224.16
2023-04-09T16:56:51.699Z,99227.84
2023-04-09T16:59:22.561Z,99235.66
2023-04-09T17:01:52.245Z,99234.06
2023-04-09T17:04:21.122Z,99221.91
2023-04-09T17:06:58.182Z,99230.03
2023-04-09T17:09:26.427Z,99232.25
2023-04-09T17:11:54.727Z,99232.81
2023-04-09T17:14:25.273Z,99232.97
2023-04-09T17:16:56.474Z,99226.94
2023-04-09T17:19:28.270Z,99230.13
2023-04-09T17:21:57.272Z,99233.63
2023-04-09T17:24:26.165Z,99233.97
2023-04-09T17:26:54.472Z,99227.69
2023-04-09T17:29:24.345Z,99234.22
2023-04-09T17:31:53.269Z,99227.91
2023-04-09T17:34:24.436Z,99225.00
2023-04-09T17:36:56.883Z,99228.97
2023-04-09T17:39:25.747Z,99231.03
2023-04-09T17:41:53.620Z,99228.31
2023-04-09T17:44:25.187Z,99242.16
2023-04-09T17:46:54.087Z,99236.06
2023-04-09T17:49:23.280Z,99240.63
2023-04-09T17:51:51.542Z,99239.72
2023-04-09T17:54:19.292Z,99242.19
2023-04-09T17:56:48.377Z,99243.63
2023-04-09T17:59:16.044Z,99241.78
2023-04-09T18:01:45.098Z,99260.38
2023-04-09T18:04:14.059Z,99249.16
2023-04-09T18:06:41.900Z,99254.69
2023-04-09T18:09:09.922Z,99253.16
2023-04-09T18:11:37.650Z,99262.75
2023-04-09T18:14:13.572Z,99262.25
2023-04-09T18:16:48.388Z,99265.13
2023-04-09T18:19:19.642Z,99269.59
2023-04-09T18:21:50.749Z,99273.59
2023-04-09T18:24:18.598Z,99273.91
2023-04-09T18:26:46.559Z,99284.56
2023-04-09T18:29:14.273Z,99279.47
2023-04-09T18:31:42.212Z,99286.22
2023-04-09T18:34:11.870Z,99295.78
2023-04-09T18:36:41.752Z,99299.06
2023-04-09T18:39:11.944Z,99307.31
2023-04-09T18:41:39.948Z,99314.97
2023-04-09T18:44:08.125Z,99312.66
2023-04-09T18:46:38.720Z,99316.75
2023-04-09T18:49:06.473Z,99321.69
2023-04-09T18:51:35.645Z,99331.19
2023-04-09T18:54:03.548Z,99321.91
2023-04-09T18:56:31.212Z,99319.59
2023-04-09T18:58:58.869Z,99316.75
2023-04-09T19:01:26.736Z,99326.50
2023-04-09T19:03:56.851Z,99318.59
2023-04-09T19:06:25.726Z,99325.03
2023-04-09T19:08:58.222Z,99329.47
2023-04-09T19:11:26.615Z,99333.94
2023-04-09T19:13:54.325Z,99329.69
2023-04-09T19:16:22.212Z,99328.84
2023-04-09T19:18:50.232Z,99330.66
2023-04-09T19:21:18.658Z,99338.16
2023-04-09T19:23:46.948Z,99329.88
2023-04-09T19:26:19.087Z,99338.59
2023-04-09T19:28:46.910Z,99336.06
2023-04-09T19:31:16.129Z,99335.09
2023-04-09T19:33:43.801Z,99339.47
2023-04-09T19:36:12.924Z,99339.28
2023-04-09T19:38:40.719Z,99334.75
2023-04-09T19:41:08.430Z,99339.53
2023-04-09T19:43:39.340Z,99341.84
2023-04-09T19:46:08.483Z,99348.59
2023-04-09T19:48:36.430Z,99344.75
2023-04-09T19:51:04.206Z,99346.00
2023-04-09T19:53:32.875Z,99345.84
2023-04-09T19:56:00.666Z,99344.34
2023-04-09T19:58:28.494Z,99348.81
2023-04-09T20:00:57.583Z,99347.44
2023-04-09T20:03:25.469Z,99350.59
2023-04-09T20:05:53.669Z,99351.09
2023-04-09T20:08:21.264Z,99353.44
2023-04-09T20:10:52.728Z,99355.59
2023-04-09T20:13:22.485Z,99357.97
2023-04-09T20:15:51.728Z,99349.97
2023-04-09T20:18:23.096Z,99350.22
2023-04-09T20:20:51.278Z,99347.88
2023-04-09T20:23:18.980Z,99349.03
2023-04-09T20:25:46.627Z,99357.91
2023-04-09T20:28:14.555Z,99350.94
2023-04-09T20:30:42.886Z,99354.13
2023-04-09T20:33:10.888Z,99349.41
2023-04-09T20:35:40.206Z,99348.22
2023-04-09T20:38:07.988Z,99353.59
2023-04-09T20:40:36.820Z,99355.09
2023-04-09T20:43:04.424Z,99352.56
2023-04-09T20:45:32.216Z,99351.16
2023-04-09T20:48:00.026Z,99356.97
2023-04-09T20:50:28.839Z,99363.56
2023-04-09T20:53:02.628Z,99359.06
2023-04-09T20:55:32.628Z,99357.81
2023-04-09T20:58:03.856Z,99361.13
2023-04-09T21:00:39.642Z,99359.25
2023-04-09T21:03:08.627Z,99357.34
2023-04-09T21:05:36.810Z,99355.53
2023-04-09T21:08:05.938Z,99349.25
2023-04-09T21:10:33.770Z,99350.28
2023-04-09T21:13:01.650Z,99344.47
2023-04-09T21:15:29.344Z,99335.94
2023-04-09T21:17:57.031Z,99341.97
2023-04-09T21:20:24.857Z,99344.91
2023-04-09T21:22:54.352Z,99345.13
2023-04-09T21:25:23.480Z,99331.41
2023-04-09T21:27:51.726Z,99336.78
2023-04-09T21:30:19.436Z,99337.63
2023-04-09T21:32:47.196Z,99335.25
2023-04-09T21:35:14.891Z,99336.25
2023-04-09T21:37:42.471Z,99336.81
2023-04-09T21:40:10.572Z,99330.81
2023-04-09T21:42:39.540Z,99337.94
2023-04-09T21:45:07.739Z,99338.69
2023-04-09T21:47:35.530Z,99336.41
2023-04-09T21:50:04.234Z,99339.63
2023-04-09T21:52:32.346Z,99340.13
2023-04-09T21:55:00.056Z,99340.69
2023-04-09T21:57:27.774Z,99344.13
2023-04-09T21:59:57.037Z,99342.75
2023-04-09T22:02:24.800Z,99341.78
2023-04-09T22:04:55.190Z,99345.53
2023-04-09T22:07:22.894Z,99347.97
2023-04-09T22:09:54.754Z,99339.22
2023-04-09T22:12:22.678Z,99349.28
2023-04-09T22:14:50.427Z,99353.44
2023-04-09T22:17:19.986Z,99341.03
2023-04-09T22:19:47.936Z,99346.66
2023-04-09T22:22:15.803Z,99339.09
2023-04-09T22:24:44.872Z,99344.09
2023-04-09T22:27:13.013Z,99337.19
2023-04-09T22:29:40.970Z,99344.63
2023-04-09T22:32:12.102Z,99342.78
2023-04-09T22:34:49.055Z,99338.25
2023-04-09T22:37:17.386Z,99340.53
2023-04-09T22:39:47.450Z,99332.41
2023-04-09T22:42:15.137Z,99331.88
2023-04-09T22:44:42.839Z,99330.56
2023-04-09T22:47:10.851Z,99322.16
2023-04-09T22:49:38.696Z,99327.53
2023-04-09T22:52:08.197Z,99317.91
2023-04-09T22:54:38.037Z,99315.69
2023-04-09T22:57:05.939Z,99318.50
2023-04-09T22:59:39.877Z,99316.53
2023-04-09T23:02:08.524Z,99319.47
2023-04-09T23:04:36.936Z,99318.38
2023-04-09T23:07:04.864Z,99324.63
2023-04-09T23:09:35.212Z,99328.19
2023-04-09T23:12:03.386Z,99326.16
2023-04-09T23:14:33.285Z,99331.63
2023-04-09T23:17:00.952Z,99339.34
2023-04-09T23:19:28.975Z,99331.91
2023-04-09T23:21:56.777Z,99336.81
2023-04-09T23:24:24.571Z,99339.97
2023-04-09T23:26:53.650Z,99333.00
2023-04-09T23:29:21.538Z,99325.41
2023-04-09T23:31:49.233Z,99329.41
2023-04-09T23:34:16.908Z,99327.69
2023-04-09T23:36:44.623Z,99328.41
2023-04-09T23:39:12.344Z,99327.84
2023-04-09T23:41:40.038Z,99322.16
2023-04-09T23:44:09.089Z,99323.44
2023-04-09T23:46:38.906Z,99323.38
2023-04-09T23:49:06.690Z,99327.81
2023-04-09T23:51:34.372Z,99322.47
2023-04-09T23:54:03.005Z,99324.03
2023-04-09T23:56:32.868Z,99315.03
2023-04-09T23:59:06.144Z,99316.72
